CYMX

Montreal International (Mirabel) Airport

Montréal, Quebec, Canada
METAR CYMX 241213Z 29006KT 240V320 3SM -SHRASN SCT006 BKN025 01/00 A3008 RMK SN3SF1CU4 SF TR VIS N 10 PRESRR SLP194
Observed Flight Rules
Feb-24 @ 12:13 UTC (9 minutes ago) Marginal Visual Flight Rules
Wind Visibility Clouds Conditions
290° at 6 knots 3 miles
  • Scattered at 600' AGL
  • Broken at 2,500' AGL
  • Light Rain
  • Light Snow
Temperatures Readings
Current 1°C / 34°F
Dewpoint 0°C / 32°F
Humidity 93%
Altimeter 30.08" Hg
Pressure 1019.4 hPa
Elevation 82
METAR CYMX 241213Z 29006KT 240V320 3SM -SHRASN SCT006 BKN025 01/00 A3008 RMK SN3SF1CU4 SF TR VIS N 10 PRESRR SLP194
Observed Flight Rules
Feb-24 @ 12:13 UTC
(9 minutes ago)
MVFR
Wind Visibility
290° at 6 knots 3 miles
Clouds
  • Scattered at 600' AGL
  • Broken at 2,500' AGL
Conditions
  • Light Rain
  • Light Snow
Temperature Dewpoint
1°C / 34°F 0°C / 32°F
Humidity Altimeter Pressure
93% 30.08" Hg 1019.4 hPa